Alvorada do Iguacu, Brazil
Current Conditions -  °F | °C
As of 5:00 PM on Sunday 23 Nov 2014 (Local Time) from SBFI Reporting Station
Clear Clear  
Wind Chill: 88°   Ceiling: Unl
Heat Index: 88°   Visibility: 6mi
Dew Point: 55°   Wind: 3mph
Humidity: 33%   Direction: 10°N
Pressure: 29.85"   Gusts: NA
Location:  25.36°S, 54.5°W
Report Text: SBFI 231900Z 01003KT CAVOK 31/13 Q1011
Loading
Personal Weather Stations






























Interactive Weather Map New forecast layout! Learn more

10-Day Weather Forecast

Advertisements
Track Severe Weather on mobile